x

N01 - Northeast Channel (44024) Wave Buoy

5:04pm - Mon 28th Jul 2014 All times are ADT. -3 hours from GMT.

  • Sig Wave height 4.9ft
  • Peak Period 6s
  • Wind
    18mph, 20mph gusts
  • Sea Temp 64°f
  • Air Temp 68°f
  • Sea Pressure 1004.2mb
  • N01 - Northeast Channel
  • N01 - Northeast Channel

More Historic Weather Station data

Upgrade to MSW Pro to gain access to the past 30 days of data for over 8000 Wavebouys and Weather Stations around the globe.

Join Pro

Comparision Forecast

View Surf forecast
   
Mon 07/28 5:04pm 5ft 6s 18 20 mph 1004.2mb 64f 68f
4:04pm 4ft 6s  -  mph - 64f -
1:04pm 3.5ft 5s 16 18 mph 1007.1mb 64f 67f
11:04am 3ft 6s 13 16 mph 1007.8mb 64f 67f
10:04am 3.5ft 6s 11 13 mph 1007.5mb 63f 66f
9:04am 3.5ft 6s 13 16 mph 1007.9mb 63f 66f
8:04am 3.5ft 5s  -  mph - 63f -
1:04am 3.5ft 6s 16
mph
1008.9mb 64f 67f
12:04am 2.5ft 8s 13 16 mph 1009.3mb 64f 67f
Sun 07/27 11:04pm 2.5ft 8s 13 16 mph 1010mb 65f 67f
10:04pm 2.5ft 5s 9
mph
1010.6mb 65f 67f
9:04pm 3ft 8s 7 9 mph 1010mb 65f 66f
8:04pm 3.5ft 8s 7
mph
1010.4mb 65f 66f
6:04pm 3ft 8s 4 7 mph 1010.7mb 65f 67f
5:04pm 2.5ft 8s 7 9 mph 1011mb 65f 67f
3:04pm 3.5ft 8s 9 11 mph 1011.2mb 65f 67f
2:04pm 3.5ft 8s 9
mph
1011.7mb 64f 66f
1:04pm 3ft 8s 7 9 mph 1012.3mb 64f 67f
11:04am 2.5ft 8s 7 9 mph 1012.9mb 64f 65f
10:04am 2.5ft 8s 4 7 mph 1013.4mb 63f 65f
Sat 07/26 8:04pm 3.5ft 8s 9 11 mph 1014.8mb 64f 64f
7:04pm 4ft 8s 7 9 mph 1014.7mb 64f 64f
6:04pm 4.5ft 8s 9 11 mph 1015mb 64f 64f
3:04pm 1.6ft 4s 13 16 mph 1015.4mb 64f 64f
2:04pm 3.5ft 8s 16 18 mph 1015.6mb 64f 64f
1:04pm 3.5ft 8s 16 18 mph 1015.8mb 64f 64f
12:04pm 3.5ft 8s 13 16 mph 1015.9mb 64f 65f
11:04am 2.5ft 8s 11 13 mph 1015.5mb 64f 65f
10:04am 2.5ft 8s 9 11 mph 1015.4mb 63f 64f
9:04am 3ft 8s 9 11 mph 1015.5mb 62f 64f
8:04am 3.5ft 8s 11
mph
1015.2mb 62f 64f
7:04am 3.5ft 11s 9 11 mph 1014.8mb 63f 63f
6:04am 3.5ft 8s 11 13 mph 1014.6mb 62f 63f
5:04am 3.5ft 8s 13 18 mph 1014.5mb 62f 63f
4:04am 3.5ft 11s 11 13 mph 1014.4mb 63f 63f
3:04am 3.5ft 11s 11 13 mph 1014.3mb 63f 63f
2:04am 4ft 8s 11 13 mph 1014.2mb 63f 63f
1:04am 3.5ft 8s 9 11 mph 1013.9mb 63f 63f
12:04am 3ft 11s 9 11 mph 1013.2mb 63f 63f
Fri 07/25 11:04pm 3.5ft 11s 9 11 mph 1013.2mb 63f 63f
10:04pm 3ft 8s 9 11 mph 1013.1mb 63f 62f
9:04pm 3.5ft 8s 11 13 mph 1012.6mb 62f 62f
8:04pm 3.5ft 11s 11 13 mph 1012.3mb 62f 62f
7:04pm 5ft 11s 13 18 mph 1011.8mb 63f 62f
5:04pm 5ft 11s 13
mph
1011.2mb 64f 62f
4:04pm 5ft 11s  -  mph - 63f -
3:04pm 5.5ft 11s  -  mph - 62f -
10:04am 3.5ft 8s 11 13 mph 1010.7mb 62f 62f
9:04am 3.5ft 8s 11 13 mph 1010.7mb 61f 61f
8:04am 3.5ft 8s 13 18 mph 1010.1mb 62f 61f
7:04am 2.5ft 4s 16 18 mph 1010.1mb 62f 61f
6:04am 4.5ft 8s  -  mph - 62f -
5:04am 4.5ft 11s 20 22 mph 1008.9mb 62f 60f